Geertruidenberg, Netherlands
Current Conditions -  °F | °C
As of 10:25 PM on Friday 24 Oct 2014 (Local Time) from EHGR Reporting Station
Light Rain Light Rain  
Wind Chill: 52°   Ceiling: 1400
Heat Index: 52°   Visibility: 6mi
Dew Point: 50°   Wind: 9mph
Humidity: 94%   Direction: 200°SSW
Pressure: 30"   Gusts: NA
Location:  51.7°N, 4.86°E
Report Text: EHGR 242025Z AUTO 20008KT 9000 -RA SCT012 OVC014 11/10 Q1016 RERA REDZ GRN
Loading
Personal Weather Stations






























Interactive Weather Map
Tropical Storm Tracking
New forecast layout! Learn more

10-Day Weather Forecast

Advertisements
Track Severe Weather on mobile